createdAt,value
2018-05-16T00:01:02.968Z,66.60
2018-05-16T00:03:31.212Z,66.80
2018-05-16T00:06:00.936Z,64.90
2018-05-16T00:08:29.188Z,64.90
2018-05-16T00:10:57.413Z,64.60
2018-05-16T00:13:25.693Z,64.30
2018-05-16T00:15:53.945Z,63.80
2018-05-16T00:18:23.440Z,63.00
2018-05-16T00:20:53.637Z,62.90
2018-05-16T00:23:21.905Z,63.10
2018-05-16T00:25:50.136Z,63.50
2018-05-16T00:28:20.441Z,63.50
2018-05-16T00:30:48.691Z,63.50
2018-05-16T00:33:16.976Z,63.90
2018-05-16T00:35:45.251Z,63.50
2018-05-16T00:38:13.504Z,63.30
2018-05-16T00:40:41.748Z,63.80
2018-05-16T00:43:10.030Z,63.60
2018-05-16T00:45:38.272Z,64.00
2018-05-16T00:48:06.531Z,63.80
2018-05-16T00:50:34.797Z,63.50
2018-05-16T00:53:03.807Z,63.50
2018-05-16T00:55:32.839Z,63.90
2018-05-16T00:58:01.932Z,63.90
2018-05-16T01:00:30.190Z,63.90
2018-05-16T01:02:58.440Z,64.70
2018-05-16T01:05:27.292Z,64.90
2018-05-16T01:07:55.548Z,65.50
2018-05-16T01:10:23.807Z,66.80
2018-05-16T01:12:52.059Z,67.70
2018-05-16T01:15:20.301Z,67.70
2018-05-16T01:17:48.556Z,68.60
2018-05-16T01:20:17.718Z,68.50
2018-05-16T01:22:46.084Z,68.40
2018-05-16T01:25:14.924Z,69.30
2018-05-16T01:27:43.192Z,70.50
2018-05-16T01:30:11.436Z,71.70
2018-05-16T01:32:39.664Z,73.70
2018-05-16T01:35:07.920Z,73.90
2018-05-16T01:37:36.768Z,74.70
2018-05-16T01:40:05.109Z,75.50
2018-05-16T01:42:34.042Z,76.20
2018-05-16T01:45:03.056Z,75.50
2018-05-16T01:47:31.770Z,75.50
2018-05-16T01:50:00.032Z,76.30
2018-05-16T01:52:28.276Z,77.10
2018-05-16T01:54:58.027Z,78.70
2018-05-16T01:57:26.252Z,78.60
2018-05-16T01:59:54.545Z,79.50
2018-05-16T02:02:22.774Z,79.50
2018-05-16T02:04:51.617Z,80.80
2018-05-16T02:07:19.861Z,80.70
2018-05-16T02:09:48.112Z,81.00
2018-05-16T02:12:16.357Z,81.80
2018-05-16T02:14:44.626Z,81.50
2018-05-16T02:17:12.876Z,82.00
2018-05-16T02:19:41.212Z,82.60
2018-05-16T02:22:10.226Z,83.70
2018-05-16T02:24:39.251Z,83.50
2018-05-16T02:27:07.530Z,83.50
2018-05-16T02:29:35.793Z,83.00
2018-05-16T02:32:04.799Z,83.00
2018-05-16T02:34:33.800Z,82.80
2018-05-16T02:37:02.029Z,82.80
2018-05-16T02:39:30.300Z,83.50
2018-05-16T02:41:58.552Z,83.90
2018-05-16T02:44:26.809Z,83.30
2018-05-16T02:46:55.829Z,84.10
2018-05-16T02:49:24.084Z,84.00
2018-05-16T02:51:53.390Z,84.80
2018-05-16T02:54:21.636Z,84.80
2018-05-16T02:56:49.873Z,85.80
2018-05-16T02:59:18.104Z,85.40
2018-05-16T03:01:46.352Z,84.90
2018-05-16T03:04:14.635Z,85.20
2018-05-16T03:06:42.982Z,85.60
2018-05-16T03:09:11.963Z,86.00
2018-05-16T03:11:40.986Z,87.50
2018-05-16T03:14:09.223Z,86.80
2018-05-16T03:16:37.932Z,86.00
2018-05-16T03:19:06.188Z,86.50
2018-05-16T03:21:34.521Z,86.70
2018-05-16T03:24:03.513Z,87.10
2018-05-16T03:26:32.537Z,87.10
2018-05-16T03:29:01.485Z,87.00
2018-05-16T03:31:29.819Z,90.20
2018-05-16T03:33:58.052Z,88.80
2018-05-16T03:36:26.314Z,87.90
2018-05-16T03:38:54.565Z,88.50
2018-05-16T03:41:22.821Z,88.80
2018-05-16T03:43:51.064Z,89.60
2018-05-16T03:46:19.348Z,89.80
2018-05-16T03:48:47.568Z,89.10
2018-05-16T03:51:15.831Z,89.10
2018-05-16T03:53:44.875Z,90.80
2018-05-16T03:56:14.022Z,90.80
2018-05-16T03:58:54.153Z,90.40
2018-05-16T04:01:34.761Z,90.20
2018-05-16T04:04:14.844Z,90.30
2018-05-16T04:06:43.100Z,89.40
2018-05-16T04:09:11.349Z,89.50
2018-05-16T04:11:39.622Z,89.10
2018-05-16T04:14:07.877Z,90.00
2018-05-16T04:16:36.428Z,89.70
2018-05-16T04:19:06.244Z,90.90
2018-05-16T04:21:34.500Z,90.80
2018-05-16T04:24:04.359Z,91.10
2018-05-16T04:26:32.613Z,91.10
2018-05-16T04:29:01.616Z,91.30
2018-05-16T04:31:29.881Z,91.30
2018-05-16T04:33:58.893Z,92.20
2018-05-16T04:36:27.922Z,92.10
2018-05-16T04:38:56.220Z,92.10
2018-05-16T04:41:25.374Z,91.20
2018-05-16T04:43:53.661Z,90.50
2018-05-16T04:46:21.921Z,90.30
2018-05-16T04:48:50.935Z,90.60
2018-05-16T04:51:19.199Z,90.60
2018-05-16T04:53:48.223Z,91.10
2018-05-16T04:56:17.233Z,90.50
2018-05-16T04:58:45.469Z,90.50
2018-05-16T05:01:13.742Z,90.20
2018-05-16T05:03:41.981Z,90.30
2018-05-16T05:06:10.255Z,89.20
2018-05-16T05:08:38.784Z,88.20
2018-05-16T05:11:07.041Z,90.20
2018-05-16T05:13:35.858Z,90.40
2018-05-16T05:16:04.130Z,90.30
2018-05-16T05:18:33.370Z,90.00
2018-05-16T05:21:02.303Z,89.70
2018-05-16T05:23:30.564Z,89.70
2018-05-16T05:25:59.569Z,89.70
2018-05-16T05:28:27.827Z,89.70
2018-05-16T05:30:56.845Z,89.30
2018-05-16T05:33:25.873Z,89.30
2018-05-16T05:35:54.160Z,89.30
2018-05-16T05:38:22.416Z,89.10
2018-05-16T05:40:50.662Z,87.50
2018-05-16T05:43:19.750Z,85.90
2018-05-16T05:45:47.928Z,85.80
2018-05-16T05:48:16.244Z,85.10
2018-05-16T05:50:44.499Z,84.50
2018-05-16T05:53:12.743Z,84.20
2018-05-16T05:55:41.786Z,84.00
2018-05-16T05:58:10.034Z,83.20
2018-05-16T06:00:38.642Z,82.30
2018-05-16T06:03:06.927Z,81.40
2018-05-16T06:05:35.159Z,81.00
2018-05-16T06:08:03.441Z,79.40
2018-05-16T06:10:31.681Z,80.30
2018-05-16T06:13:00.721Z,78.10
2018-05-16T06:15:29.625Z,78.10
2018-05-16T06:17:57.890Z,76.40
2018-05-16T06:20:27.709Z,74.50
2018-05-16T06:22:56.078Z,73.20
2018-05-16T06:25:25.080Z,73.20
2018-05-16T06:27:53.938Z,73.10
2018-05-16T06:30:22.173Z,69.00
2018-05-16T06:32:50.468Z,69.00
2018-05-16T06:35:18.850Z,68.20
2018-05-16T06:37:47.156Z,66.70
2018-05-16T06:40:15.389Z,65.50
2018-05-16T06:42:43.658Z,66.70
2018-05-16T06:45:11.909Z,65.70
2018-05-16T06:47:40.166Z,66.10
2018-05-16T06:50:08.871Z,65.20
2018-05-16T06:52:37.156Z,64.10
2018-05-16T06:55:05.459Z,65.50
2018-05-16T06:57:34.478Z,61.80
2018-05-16T07:00:04.070Z,61.80
2018-05-16T07:02:32.858Z,60.10
2018-05-16T07:05:03.075Z,58.40
2018-05-16T07:07:32.831Z,58.40
2018-05-16T07:10:02.652Z,58.40
2018-05-16T07:12:32.432Z,57.60
2018-05-16T07:15:02.328Z,58.40
2018-05-16T07:17:31.190Z,57.70
2018-05-16T07:20:00.201Z,56.80
2018-05-16T07:22:29.042Z,56.20
2018-05-16T07:24:58.667Z,55.90
2018-05-16T07:27:29.563Z,55.40
2018-05-16T07:29:58.525Z,55.40
2018-05-16T07:32:28.146Z,54.80
2018-05-16T07:34:57.587Z,54.40
2018-05-16T07:37:26.555Z,53.50
2018-05-16T07:39:56.043Z,53.50
2018-05-16T07:42:24.909Z,53.40
2018-05-16T07:44:54.994Z,52.90
2018-05-16T07:47:24.012Z,52.70
2018-05-16T07:49:53.776Z,53.30
2018-05-16T07:52:24.245Z,54.40
2018-05-16T07:54:53.347Z,54.40
2018-05-16T07:57:22.417Z,54.30
2018-05-16T07:59:52.659Z,54.10
2018-05-16T08:02:21.668Z,55.00
2018-05-16T08:04:51.000Z,55.10
2018-05-16T08:07:20.990Z,55.30
2018-05-16T08:09:50.070Z,55.70
2018-05-16T08:12:19.947Z,56.50
2018-05-16T08:14:49.806Z,55.70
2018-05-16T08:17:18.691Z,55.30
2018-05-16T08:19:48.633Z,54.50
2018-05-16T08:22:18.690Z,54.50
2018-05-16T08:24:47.677Z,54.90
2018-05-16T08:27:16.904Z,54.70
2018-05-16T08:29:46.082Z,55.10
2018-05-16T08:32:15.059Z,56.10
2018-05-16T08:34:44.384Z,57.60
2018-05-16T08:37:14.422Z,58.20
2018-05-16T08:39:43.699Z,57.90
2018-05-16T08:42:13.420Z,57.10
2018-05-16T08:44:42.515Z,56.40
2018-05-16T08:47:11.931Z,55.80
2018-05-16T08:49:40.913Z,55.30
2018-05-16T08:52:11.031Z,55.20
2018-05-16T08:54:40.959Z,53.20
2018-05-16T08:57:09.844Z,53.10
2018-05-16T08:59:38.842Z,53.10
2018-05-16T09:02:07.739Z,53.90
2018-05-16T09:04:37.971Z,54.00
2018-05-16T09:07:06.798Z,53.20
2018-05-16T09:09:36.944Z,50.20
2018-05-16T09:12:06.695Z,45.30
2018-05-16T09:14:35.912Z,45.20
2018-05-16T09:17:05.725Z,46.10
2018-05-16T09:19:34.730Z,45.20
2018-05-16T09:22:03.601Z,46.80
2018-05-16T09:24:32.478Z,45.80
2018-05-16T09:27:04.085Z,43.10
2018-05-16T09:29:33.072Z,43.20
2018-05-16T09:32:02.187Z,43.40
2018-05-16T09:34:31.853Z,43.70
2018-05-16T09:37:01.602Z,43.60
2018-05-16T09:39:31.125Z,43.20
2018-05-16T09:42:00.255Z,43.60
2018-05-16T09:44:29.883Z,43.00
2018-05-16T09:47:00.321Z,44.00
2018-05-16T09:49:30.044Z,42.90
2018-05-16T09:51:59.723Z,42.90
2018-05-16T09:54:28.456Z,43.20
2018-05-16T09:56:58.373Z,44.00
2018-05-16T09:59:27.254Z,44.90
2018-05-16T10:01:58.018Z,44.60
2018-05-16T10:04:27.184Z,44.60
2018-05-16T10:06:57.216Z,42.00
2018-05-16T10:09:26.048Z,41.90
2018-05-16T10:11:55.061Z,41.40
2018-05-16T10:14:23.826Z,41.70
2018-05-16T10:16:53.093Z,41.90
2018-05-16T10:19:21.479Z,42.50
2018-05-16T10:21:49.743Z,43.10
2018-05-16T10:24:19.221Z,42.50
2018-05-16T10:26:47.493Z,42.50
2018-05-16T10:29:15.736Z,43.50
2018-05-16T10:31:44.067Z,44.40
2018-05-16T10:34:12.318Z,46.20
2018-05-16T10:36:40.645Z,47.70
2018-05-16T10:39:08.938Z,49.40
2018-05-16T10:41:37.978Z,53.00
2018-05-16T10:44:06.210Z,53.30
2018-05-16T10:46:34.482Z,54.10
2018-05-16T10:49:02.733Z,54.90
2018-05-16T10:51:31.801Z,57.70
2018-05-16T10:54:00.909Z,57.80
2018-05-16T10:56:29.175Z,57.10
2018-05-16T10:58:58.188Z,61.00
2018-05-16T11:01:26.518Z,60.90
2018-05-16T11:03:54.776Z,62.90
2018-05-16T11:06:23.045Z,63.60
2018-05-16T11:08:51.301Z,64.40
2018-05-16T11:11:19.566Z,62.80
2018-05-16T11:13:48.578Z,60.00
2018-05-16T11:16:17.626Z,59.90
2018-05-16T11:18:45.920Z,59.90
2018-05-16T11:21:14.233Z,58.00
2018-05-16T11:23:44.151Z,57.40
2018-05-16T11:26:12.412Z,57.40
2018-05-16T11:28:40.640Z,57.70
2018-05-16T11:31:08.910Z,55.90
2018-05-16T11:33:37.920Z,55.90
2018-05-16T11:36:06.163Z,55.80
2018-05-16T11:38:35.797Z,56.90
2018-05-16T11:41:04.066Z,56.90
2018-05-16T11:43:33.089Z,58.80
2018-05-16T11:46:01.333Z,58.80
2018-05-16T11:48:29.610Z,60.30
2018-05-16T11:50:57.845Z,62.30
2018-05-16T11:53:26.566Z,62.70
2018-05-16T11:55:54.849Z,65.50
2018-05-16T11:58:23.157Z,64.40
2018-05-16T12:00:52.280Z,65.60
2018-05-16T12:03:21.303Z,66.60
2018-05-16T12:05:49.560Z,66.50
2018-05-16T12:08:17.830Z,65.80
2018-05-16T12:10:46.858Z,64.10
2018-05-16T12:13:15.195Z,64.10
2018-05-16T12:15:44.228Z,61.50
2018-05-16T12:18:12.646Z,61.40
2018-05-16T12:20:40.892Z,62.70
2018-05-16T12:23:09.181Z,61.50
2018-05-16T12:25:37.896Z,62.60
2018-05-16T12:28:06.243Z,61.50
2018-05-16T12:30:35.266Z,61.20
2018-05-16T12:33:03.541Z,61.00
2018-05-16T12:35:31.780Z,59.80
2018-05-16T12:38:00.837Z,59.60
2018-05-16T12:40:29.083Z,59.60
2018-05-16T12:43:09.203Z,58.70
2018-05-16T12:45:38.312Z,56.40
2018-05-16T12:48:07.349Z,54.60
2018-05-16T12:50:35.584Z,54.50
2018-05-16T12:53:04.048Z,54.50
2018-05-16T12:55:32.307Z,55.30
2018-05-16T12:58:00.591Z,56.20
2018-05-16T13:00:29.116Z,56.80
2018-05-16T13:02:57.583Z,56.40
2018-05-16T13:05:25.821Z,57.10
2018-05-16T13:07:54.102Z,56.80
2018-05-16T13:10:22.372Z,58.00
2018-05-16T13:12:51.465Z,58.60
2018-05-16T13:15:19.684Z,58.60
2018-05-16T13:17:48.050Z,59.70
2018-05-16T13:20:16.609Z,59.70
2018-05-16T13:22:45.760Z,61.30
2018-05-16T13:25:14.240Z,61.20
2018-05-16T13:27:42.462Z,61.40
2018-05-16T13:30:10.730Z,62.90
2018-05-16T13:32:39.034Z,63.90
2018-05-16T13:35:07.285Z,64.40
2018-05-16T13:37:35.626Z,65.20
2018-05-16T13:40:03.916Z,66.20
2018-05-16T13:42:32.191Z,67.60
2018-05-16T13:45:01.076Z,67.50
2018-05-16T13:47:30.089Z,67.40
2018-05-16T13:49:58.444Z,67.40
2018-05-16T13:52:26.759Z,67.80
2018-05-16T13:54:55.400Z,67.40
2018-05-16T13:57:23.642Z,66.70
2018-05-16T13:59:52.496Z,68.00
2018-05-16T14:02:21.516Z,67.50
2018-05-16T14:04:49.812Z,67.50
2018-05-16T14:07:18.049Z,65.80
2018-05-16T14:09:46.315Z,63.90
2018-05-16T14:12:15.156Z,62.40
2018-05-16T14:14:43.432Z,60.40
2018-05-16T14:17:12.425Z,60.80
2018-05-16T14:19:41.441Z,61.50
2018-05-16T14:22:10.501Z,61.50
2018-05-16T14:24:38.764Z,63.10
2018-05-16T14:27:07.893Z,63.00
2018-05-16T14:29:36.923Z,61.40
2018-05-16T14:32:05.224Z,61.30
2018-05-16T14:34:33.616Z,58.60
2018-05-16T14:37:02.588Z,57.90
2018-05-16T14:39:30.828Z,57.60
2018-05-16T14:41:59.829Z,57.10
2018-05-16T14:44:28.092Z,57.10
2018-05-16T14:46:56.345Z,58.00
2018-05-16T14:49:25.238Z,57.00
2018-05-16T14:51:53.509Z,56.30
2018-05-16T14:54:21.784Z,56.60
2018-05-16T14:56:50.024Z,57.50
2018-05-16T14:59:18.364Z,58.20
2018-05-16T15:01:46.697Z,59.50
2018-05-16T15:04:14.887Z,59.30
2018-05-16T15:06:43.898Z,60.20
2018-05-16T15:09:12.774Z,60.10
2018-05-16T15:11:41.787Z,62.20
2018-05-16T15:14:11.670Z,62.40
2018-05-16T15:16:40.831Z,62.30
2018-05-16T15:19:09.080Z,62.60
2018-05-16T15:21:38.085Z,64.50
2018-05-16T15:24:07.103Z,64.30
2018-05-16T15:26:35.359Z,64.20
2018-05-16T15:29:04.386Z,65.20
2018-05-16T15:31:32.641Z,65.10
2018-05-16T15:34:01.642Z,65.30
2018-05-16T15:36:30.720Z,66.30
2018-05-16T15:38:59.675Z,66.20
2018-05-16T15:41:28.533Z,66.30
2018-05-16T15:43:56.788Z,68.30
2018-05-16T15:46:25.096Z,67.70
2018-05-16T15:48:54.108Z,69.60
2018-05-16T15:51:22.393Z,69.60
2018-05-16T15:53:50.739Z,69.00
2018-05-16T15:56:19.880Z,68.90
2018-05-16T15:58:48.166Z,67.90
2018-05-16T16:01:17.244Z,67.90
2018-05-16T16:03:46.243Z,68.00
2018-05-16T16:06:16.723Z,68.10
2018-05-16T16:08:44.975Z,68.10
2018-05-16T16:11:13.914Z,67.50
2018-05-16T16:13:42.161Z,66.30
2018-05-16T16:16:11.011Z,65.30
2018-05-16T16:18:40.113Z,63.50
2018-05-16T16:21:08.325Z,63.50
2018-05-16T16:23:36.579Z,63.10
2018-05-16T16:26:05.627Z,64.10
2018-05-16T16:28:33.877Z,64.10
2018-05-16T16:31:03.112Z,63.10
2018-05-16T16:33:32.211Z,61.60
2018-05-16T16:36:00.484Z,62.00
2018-05-16T16:38:28.740Z,60.90
2018-05-16T16:40:57.715Z,61.20
2018-05-16T16:43:26.731Z,62.00
2018-05-16T16:45:55.021Z,61.90
2018-05-16T16:48:23.268Z,62.50
2018-05-16T16:50:51.637Z,63.10
2018-05-16T16:53:20.892Z,69.10
2018-05-16T16:55:49.147Z,70.50
2018-05-16T16:58:18.190Z,80.30
2018-05-16T17:00:46.473Z,80.30
2018-05-16T17:03:14.726Z,83.60
2018-05-16T17:05:42.994Z,84.40
2018-05-16T17:08:12.091Z,87.70
2018-05-16T17:10:40.288Z,87.70
2018-05-16T17:13:08.589Z,88.50
2018-05-16T17:15:36.828Z,88.10
2018-05-16T17:18:05.869Z,90.40
2018-05-16T17:20:34.781Z,90.40
2018-05-16T17:23:03.116Z,90.30
2018-05-16T17:25:31.365Z,92.40
2018-05-16T17:27:59.649Z,91.90
2018-05-16T17:30:27.954Z,91.80
2018-05-16T17:32:56.172Z,92.00
2018-05-16T17:35:24.420Z,91.80
2018-05-16T17:37:53.516Z,92.00
2018-05-16T17:40:22.544Z,91.90
2018-05-16T17:42:50.824Z,91.90
2018-05-16T17:45:19.115Z,92.50
2018-05-16T17:47:47.434Z,91.80
2018-05-16T17:50:15.716Z,92.40
2018-05-16T17:52:44.564Z,92.60
2018-05-16T17:55:13.142Z,92.70
2018-05-16T17:57:43.061Z,91.90
2018-05-16T18:00:11.358Z,91.80
2018-05-16T18:02:40.357Z,89.20
2018-05-16T18:05:08.648Z,89.20
2018-05-16T18:07:37.261Z,90.00
2018-05-16T18:10:05.505Z,89.30
2018-05-16T18:12:33.781Z,89.40
2018-05-16T18:15:18.663Z,89.10
2018-05-16T18:17:47.740Z,87.90
2018-05-16T18:20:15.998Z,87.80
2018-05-16T18:22:45.031Z,86.50
2018-05-16T18:25:13.265Z,85.70
2018-05-16T18:27:42.437Z,85.50
2018-05-16T18:30:10.691Z,87.00
2018-05-16T18:32:38.952Z,87.20
2018-05-16T18:35:08.837Z,87.50
2018-05-16T18:37:38.784Z,88.50
2018-05-16T18:40:08.410Z,89.20
2018-05-16T18:42:36.745Z,89.20
2018-05-16T18:45:05.129Z,89.80
2018-05-16T18:47:33.389Z,90.00
2018-05-16T18:50:02.112Z,89.10
2018-05-16T18:52:30.388Z,90.10
2018-05-16T18:54:58.665Z,90.60
2018-05-16T18:57:27.010Z,90.70
2018-05-16T18:59:55.657Z,90.90
2018-05-16T19:02:23.908Z,91.10
2018-05-16T19:04:52.161Z,91.30
2018-05-16T19:07:20.536Z,91.00
2018-05-16T19:09:48.825Z,91.50
2018-05-16T19:12:17.833Z,91.70
2018-05-16T19:14:46.220Z,91.70
2018-05-16T19:17:14.481Z,92.20
2018-05-16T19:19:43.024Z,92.20
2018-05-16T19:22:11.296Z,91.70
2018-05-16T19:24:40.536Z,91.30
2018-05-16T19:27:09.632Z,91.60
2018-05-16T19:29:37.834Z,91.60
2018-05-16T19:32:06.090Z,91.60
2018-05-16T19:34:35.160Z,91.70
2018-05-16T19:37:03.435Z,91.70
2018-05-16T19:39:31.698Z,90.80
2018-05-16T19:41:59.981Z,90.20
2018-05-16T19:44:28.265Z,90.80
2018-05-16T19:46:56.518Z,90.60
2018-05-16T19:49:24.812Z,90.40
2018-05-16T19:51:53.058Z,90.40
2018-05-16T19:54:22.104Z,90.70
2018-05-16T19:56:50.342Z,90.70
2018-05-16T19:59:19.386Z,90.50
2018-05-16T20:01:47.653Z,90.50
2018-05-16T20:04:15.939Z,90.50
2018-05-16T20:06:44.924Z,90.30
2018-05-16T20:09:13.363Z,90.00
2018-05-16T20:11:42.378Z,90.70
2018-05-16T20:14:10.648Z,90.70
2018-05-16T20:16:38.896Z,91.00
2018-05-16T20:19:07.776Z,90.40
2018-05-16T20:21:36.028Z,90.50
2018-05-16T20:24:05.278Z,91.00
2018-05-16T20:26:33.506Z,91.00
2018-05-16T20:29:02.656Z,90.50
2018-05-16T20:31:31.812Z,89.00
2018-05-16T20:34:00.855Z,89.30
2018-05-16T20:36:29.167Z,89.30
2018-05-16T20:38:57.440Z,88.00
2018-05-16T20:41:27.469Z,88.20
2018-05-16T20:43:56.331Z,89.20
2018-05-16T20:46:25.346Z,90.30
2018-05-16T20:48:53.623Z,90.20
2018-05-16T20:51:21.895Z,90.00
2018-05-16T20:53:50.168Z,88.40
2018-05-16T20:56:18.506Z,89.50
2018-05-16T20:58:46.908Z,89.10
2018-05-16T21:01:15.825Z,90.00
2018-05-16T21:03:44.105Z,89.90
2018-05-16T21:06:12.369Z,90.00
2018-05-16T21:08:42.164Z,88.30
2018-05-16T21:11:11.237Z,89.80
2018-05-16T21:13:39.548Z,89.80
2018-05-16T21:16:07.830Z,90.00
2018-05-16T21:18:36.073Z,89.80
2018-05-16T21:21:04.336Z,90.00
2018-05-16T21:23:32.697Z,90.00
2018-05-16T21:26:01.716Z,88.10
2018-05-16T21:28:29.974Z,88.10
2018-05-16T21:30:59.612Z,90.50
2018-05-16T21:33:27.856Z,90.50
2018-05-16T21:35:56.892Z,90.80
2018-05-16T21:38:25.908Z,90.80
2018-05-16T21:40:54.172Z,90.70
2018-05-16T21:43:22.528Z,90.70
2018-05-16T21:45:51.542Z,89.70
2018-05-16T21:48:19.876Z,89.60
2018-05-16T21:50:48.133Z,90.00
2018-05-16T21:53:17.270Z,90.10
2018-05-16T21:55:45.547Z,90.00
2018-05-16T21:58:13.788Z,90.00
2018-05-16T22:00:42.061Z,90.20
2018-05-16T22:03:10.297Z,89.70
2018-05-16T22:05:39.171Z,90.50
2018-05-16T22:08:07.635Z,90.30
2018-05-16T22:10:36.026Z,89.80
2018-05-16T22:13:04.184Z,90.40
2018-05-16T22:15:32.452Z,90.70
2018-05-16T22:18:00.728Z,90.70
2018-05-16T22:20:29.760Z,90.50
2018-05-16T22:22:58.008Z,90.50
2018-05-16T22:25:29.638Z,90.90
2018-05-16T22:27:57.872Z,90.10
2018-05-16T22:30:32.628Z,90.00
2018-05-16T22:33:06.536Z,89.70
2018-05-16T22:35:40.455Z,90.50
2018-05-16T22:38:14.540Z,90.60
2018-05-16T22:40:48.431Z,90.20
2018-05-16T22:43:16.676Z,88.50
2018-05-16T22:45:45.975Z,86.80
2018-05-16T22:48:14.213Z,86.80
2018-05-16T22:50:42.479Z,87.10
2018-05-16T22:53:10.724Z,86.10
2018-05-16T22:55:40.121Z,87.30
2018-05-16T22:58:08.366Z,87.20
2018-05-16T23:00:36.618Z,85.60
2018-05-16T23:03:04.893Z,87.90
2018-05-16T23:05:33.943Z,87.40
2018-05-16T23:08:02.202Z,87.40
2018-05-16T23:10:30.503Z,87.60
2018-05-16T23:12:59.466Z,87.00
2018-05-16T23:15:27.735Z,87.50
2018-05-16T23:17:56.021Z,86.60
2018-05-16T23:20:25.024Z,86.50
2018-05-16T23:22:53.292Z,86.50
2018-05-16T23:25:22.380Z,86.80
2018-05-16T23:27:52.148Z,85.30
2018-05-16T23:30:20.433Z,85.30
2018-05-16T23:32:48.690Z,87.30
2018-05-16T23:35:16.953Z,88.20
2018-05-16T23:37:45.980Z,85.70
2018-05-16T23:40:14.241Z,85.60
2018-05-16T23:42:42.520Z,83.90
2018-05-16T23:45:10.765Z,85.20
2018-05-16T23:47:39.008Z,84.50
2018-05-16T23:50:07.274Z,84.10
2018-05-16T23:52:35.556Z,85.30
2018-05-16T23:55:04.745Z,84.20
2018-05-16T23:57:33.017Z,85.30
